createdAt,value
2018-11-26T00:09:08.799Z,3.22
2018-11-26T00:11:40.906Z,3.23
2018-11-26T00:14:12.863Z,3.26
2018-11-26T00:16:44.822Z,3.32
2018-11-26T00:19:17.441Z,3.28
2018-11-26T00:39:37.103Z,3.38
2018-11-26T00:42:09.043Z,3.36
2018-11-26T00:44:41.963Z,3.41
2018-11-26T00:47:13.910Z,3.48
2018-11-26T00:49:45.859Z,3.47
2018-11-26T00:52:17.797Z,3.51
2018-11-26T00:54:49.749Z,3.54
2018-11-26T01:06:15.774Z,3.65
2018-11-26T01:08:47.734Z,3.66
2018-11-26T01:29:08.866Z,3.65
2018-11-26T01:31:40.804Z,3.74
2018-11-26T01:34:12.808Z,3.79
2018-11-26T01:54:32.656Z,3.89
2018-11-26T01:57:04.815Z,3.90
2018-11-26T01:59:36.749Z,3.91
2018-11-26T02:02:08.707Z,3.91
2018-11-26T02:40:22.716Z,4.05
2018-11-26T02:42:54.673Z,4.06
2018-11-26T02:45:27.922Z,4.07
2018-11-26T02:47:59.922Z,4.05
2018-11-26T02:50:31.859Z,4.10
2018-11-26T02:53:03.859Z,4.08
2018-11-26T02:55:35.799Z,4.10
2018-11-26T02:58:08.492Z,4.12
2018-11-26T03:00:41.309Z,4.13
2018-11-26T03:03:14.983Z,4.13
2018-11-26T03:09:08.259Z,4.10
2018-11-26T03:11:40.218Z,4.14
2018-11-26T03:14:12.156Z,4.19
2018-11-26T03:16:44.103Z,4.13
2018-11-26T03:19:16.115Z,4.12
2018-11-26T03:21:48.078Z,4.08
2018-11-26T03:24:20.025Z,4.08
2018-11-26T03:26:51.980Z,4.10
2018-11-26T03:29:23.975Z,4.06
2018-11-26T03:31:55.955Z,4.12
2018-11-26T03:34:28.551Z,4.13
2018-11-26T03:37:00.529Z,4.13
2018-11-26T03:39:32.570Z,4.09
2018-11-26T03:42:04.604Z,4.06
2018-11-26T04:08:18.888Z,3.93
2018-11-26T04:10:50.848Z,3.96
2018-11-26T04:13:22.787Z,3.99
2018-11-26T04:15:54.735Z,3.99
2018-11-26T04:18:26.859Z,3.98
2018-11-26T04:20:58.795Z,3.98
2018-11-26T04:23:30.759Z,3.97
2018-11-26T04:26:02.709Z,3.98
2018-11-26T04:28:34.667Z,3.93
2018-11-26T04:31:06.630Z,3.97
2018-11-26T04:33:38.591Z,3.96
2018-11-26T04:53:57.971Z,3.93
2018-11-26T04:56:29.942Z,3.83
2018-11-26T04:59:01.921Z,3.93
2018-11-26T05:25:17.715Z,3.94
2018-11-26T05:27:50.241Z,3.96
2018-11-26T05:30:22.208Z,4.08
2018-11-26T05:32:54.151Z,4.01
2018-11-26T05:35:26.130Z,4.09
2018-11-26T05:37:58.079Z,4.04
2018-11-26T05:40:30.038Z,4.05
2018-11-26T05:43:01.995Z,4.01
2018-11-26T05:45:33.962Z,4.05
2018-11-26T05:48:05.948Z,3.96
2018-11-26T06:08:25.447Z,4.02
2018-11-26T06:10:57.435Z,4.01
2018-11-26T06:13:29.411Z,3.80
2018-11-26T06:28:12.335Z,4.00
2018-11-26T06:30:45.229Z,3.99
2018-11-26T06:51:05.432Z,3.96
2018-11-26T06:53:37.391Z,3.97
2018-11-26T06:56:09.328Z,3.95
2018-11-26T06:58:41.322Z,3.95
2018-11-26T07:01:13.348Z,3.95
2018-11-26T07:03:45.877Z,3.98
2018-11-26T07:06:17.912Z,4.04
2018-11-26T07:08:49.877Z,4.03
2018-11-26T07:11:21.823Z,4.00
2018-11-26T07:13:53.797Z,4.03
2018-11-26T07:16:25.743Z,4.04
2018-11-26T07:18:57.695Z,4.03
2018-11-26T07:21:29.649Z,4.03
2018-11-26T07:24:01.575Z,4.13
2018-11-26T07:26:33.564Z,4.10
2018-11-26T07:29:05.586Z,4.06
2018-11-26T07:31:37.584Z,4.07
2018-11-26T07:34:09.644Z,4.09
2018-11-26T07:36:41.647Z,4.07
2018-11-26T07:39:13.627Z,4.11
2018-11-26T07:41:45.589Z,4.04
2018-11-26T07:44:17.577Z,4.02
2018-11-26T07:46:49.564Z,4.05
2018-11-26T07:49:21.535Z,4.07
2018-11-26T07:51:53.556Z,4.08
2018-11-26T07:54:25.559Z,4.00
2018-11-26T08:14:42.315Z,4.17
2018-11-26T08:17:14.317Z,4.14
2018-11-26T08:19:46.320Z,4.20
2018-11-26T08:22:18.312Z,4.20
2018-11-26T08:24:50.871Z,4.23
2018-11-26T08:47:23.002Z,4.20
2018-11-26T09:07:40.740Z,4.10
2018-11-26T09:10:12.684Z,4.11
2018-11-26T09:45:20.824Z,4.07
2018-11-26T09:47:52.803Z,4.09
2018-11-26T10:08:12.851Z,4.19
2018-11-26T10:10:44.879Z,4.23
2018-11-26T10:13:16.957Z,4.19
2018-11-26T10:15:50.062Z,4.09
2018-11-26T10:18:22.079Z,4.17
2018-11-26T10:20:54.063Z,4.18
2018-11-26T10:23:26.003Z,4.17
2018-11-26T10:43:43.695Z,3.97
2018-11-26T10:46:15.762Z,3.99
2018-11-26T10:48:47.831Z,4.03
2018-11-26T10:51:19.862Z,4.08
2018-11-26T10:53:51.857Z,4.12
2018-11-26T11:05:17.161Z,4.08
2018-11-26T11:07:49.200Z,4.12
2018-11-26T11:10:23.244Z,4.13
2018-11-26T11:12:55.288Z,3.99
2018-11-26T11:15:27.351Z,4.08
2018-11-26T11:17:59.430Z,3.57
2018-11-26T11:20:31.461Z,4.01
2018-11-26T11:23:03.496Z,4.03
2018-11-26T11:25:35.636Z,4.08
2018-11-26T11:28:07.669Z,4.04
2018-11-26T11:30:39.652Z,4.07
2018-11-26T11:35:45.955Z,4.11
2018-11-26T11:38:18.027Z,4.10
2018-11-26T11:40:50.009Z,4.03
2018-11-26T11:43:22.059Z,4.04
2018-11-26T11:45:54.083Z,4.01
2018-11-26T11:48:26.164Z,3.95
2018-11-26T11:50:58.148Z,3.99
2018-11-26T11:53:31.053Z,4.01
2018-11-26T11:56:03.118Z,4.05
2018-11-26T11:58:35.096Z,4.07
2018-11-26T12:01:10.659Z,4.07
2018-11-26T12:03:39.169Z,4.06
2018-11-26T12:06:11.411Z,4.08
2018-11-26T12:08:43.212Z,4.11
2018-11-26T12:11:15.325Z,4.14
2018-11-26T12:13:48.218Z,4.11
2018-11-26T12:16:20.215Z,4.13
2018-11-26T12:18:52.261Z,4.16
2018-11-26T12:21:24.276Z,4.21
2018-11-26T12:23:56.312Z,4.22
2018-11-26T12:26:28.333Z,4.17
2018-11-26T12:29:00.345Z,4.13
2018-11-26T12:31:32.452Z,4.13
2018-11-26T12:34:05.116Z,4.11
2018-11-26T12:36:37.173Z,4.10
2018-11-26T12:39:09.321Z,4.16
2018-11-26T12:41:41.372Z,4.17
2018-11-26T12:44:13.413Z,4.20
2018-11-26T12:46:45.394Z,4.20
2018-11-26T12:49:17.384Z,4.10
2018-11-26T12:51:49.393Z,4.10
2018-11-26T12:54:21.445Z,4.13
2018-11-26T12:56:53.420Z,4.19
2018-11-26T12:59:25.494Z,4.17
2018-11-26T13:01:57.504Z,4.12
2018-11-26T13:04:29.605Z,4.14
2018-11-26T13:07:01.578Z,4.10
2018-11-26T13:09:33.633Z,4.11
2018-11-26T13:12:05.657Z,4.07
2018-11-26T13:14:37.638Z,4.11
2018-11-26T13:17:09.620Z,4.07
2018-11-26T13:19:44.378Z,4.18
2018-11-26T13:22:16.397Z,4.19
2018-11-26T13:24:48.429Z,4.19
2018-11-26T13:27:20.434Z,4.26
2018-11-26T14:17:16.056Z,3.81
2018-11-26T14:19:48.037Z,3.88
2018-11-26T14:22:20.373Z,3.86
2018-11-26T14:24:52.374Z,3.84
2018-11-26T14:27:24.405Z,3.81
2018-11-26T14:29:56.421Z,3.79
2018-11-26T14:32:28.471Z,3.73
2018-11-26T14:35:00.549Z,3.75
2018-11-26T14:37:32.689Z,3.80
2018-11-26T14:57:49.926Z,3.61
2018-11-26T15:18:19.521Z,3.53
2018-11-26T15:50:27.229Z,3.43
2018-11-26T16:13:43.305Z,3.34
2018-11-26T16:16:15.277Z,3.29
2018-11-26T16:36:39.121Z,3.30
2018-11-26T16:39:11.096Z,3.34
2018-11-26T16:41:43.156Z,3.37
2018-11-26T17:02:06.946Z,3.32
2018-11-26T17:22:32.625Z,3.16
2018-11-26T17:46:05.708Z,3.11
2018-11-26T18:09:27.722Z,2.82
2018-11-26T18:29:53.534Z,2.59
2018-11-26T18:50:17.077Z,2.65
2018-11-26T19:10:36.766Z,2.55
2018-11-26T19:30:55.783Z,2.52
2018-11-26T19:51:12.701Z,2.40
2018-11-26T19:53:45.445Z,2.38
2018-11-26T20:14:02.361Z,2.37
2018-11-26T20:34:20.548Z,2.39
2018-11-26T21:03:50.003Z,2.53
2018-11-26T21:06:22.027Z,2.54
2018-11-26T21:26:39.677Z,2.64
2018-11-26T21:46:57.044Z,2.53
2018-11-26T22:07:35.730Z,2.62
2018-11-26T22:28:02.178Z,2.60
2018-11-26T22:48:20.931Z,2.37
2018-11-26T22:50:53.259Z,2.29
2018-11-26T22:53:25.665Z,2.28
2018-11-26T22:55:58.003Z,2.28
2018-11-26T23:19:12.619Z,2.19
2018-11-26T23:21:44.689Z,2.16
2018-11-26T23:24:16.792Z,2.08
2018-11-26T23:47:45.184Z,1.97
